createdAt,value
2023-03-18T00:00:02.754Z,86.8
2023-03-18T00:01:04.110Z,86.8
2023-03-18T00:02:05.072Z,86.7
2023-03-18T00:03:05.329Z,86.9
2023-03-18T00:04:06.256Z,86.8
2023-03-18T00:05:07.017Z,86.61
2023-03-18T00:06:07.509Z,86.22
2023-03-18T00:07:07.863Z,86.13
2023-03-18T00:08:08.751Z,86.61
2023-03-18T00:09:08.965Z,86.61
2023-03-18T00:10:09.623Z,86.61
2023-03-18T00:11:10.157Z,86.7
2023-03-18T00:12:10.379Z,86.9
2023-03-18T00:13:10.303Z,87.18
2023-03-18T00:14:10.914Z,88.04
2023-03-18T00:15:11.588Z,87.65
2023-03-18T00:16:12.351Z,87.13
2023-03-18T00:17:12.875Z,87.18
2023-03-18T00:18:12.789Z,87.04
2023-03-18T00:19:13.446Z,87.04
2023-03-18T00:20:13.688Z,87.23
2023-03-18T00:21:14.361Z,87.8
2023-03-18T00:22:14.627Z,87.99
2023-03-18T00:23:15.626Z,87.71
2023-03-18T00:24:16.123Z,87.52
2023-03-18T00:25:16.331Z,87.99
2023-03-18T00:26:16.996Z,88.28
2023-03-18T00:27:17.622Z,88.37
2023-03-18T00:28:18.968Z,87.8
2023-03-18T00:29:18.929Z,87.52
2023-03-18T00:30:19.493Z,87.23
2023-03-18T00:31:19.767Z,87.04
2023-03-18T00:32:20.065Z,86.61
2023-03-18T00:33:20.470Z,86.57
2023-03-18T00:34:21.545Z,86.61
2023-03-18T00:35:21.907Z,86.28
2023-03-18T00:36:22.257Z,86.22
2023-03-18T00:37:22.191Z,86.8
2023-03-18T00:38:22.813Z,86.38
2023-03-18T00:39:23.016Z,86.8
2023-03-18T00:40:22.938Z,87.04
2023-03-18T00:41:24.284Z,87.13
2023-03-18T00:42:24.219Z,86.76
2023-03-18T00:43:24.857Z,86.38
2023-03-18T00:44:25.150Z,86.66
2023-03-18T00:45:25.077Z,86.76
2023-03-18T00:46:26.362Z,86.85
2023-03-18T00:47:26.880Z,86.28
2023-03-18T00:48:27.368Z,86.18
2023-03-18T00:49:28.288Z,85.8
2023-03-18T00:50:28.204Z,85.56
2023-03-18T00:51:29.333Z,85.56
2023-03-18T00:52:32.071Z,85.47
2023-03-18T00:53:30.135Z,85.37
2023-03-18T00:54:30.446Z,84.99
2023-03-18T00:55:31.679Z,84.99
2023-03-18T00:56:32.341Z,84.42
2023-03-18T00:57:32.575Z,84.42
2023-03-18T00:58:33.539Z,84.52
2023-03-18T00:59:33.783Z,83.94
2023-03-18T01:00:34.310Z,84.23
2023-03-18T01:01:34.853Z,84.04
2023-03-18T01:02:35.806Z,84.13
2023-03-18T01:03:36.029Z,83.75
2023-03-18T01:04:36.396Z,83.94
2023-03-18T01:05:36.330Z,84.52
2023-03-18T01:06:37.310Z,84.33
2023-03-18T01:07:37.543Z,84.23
2023-03-18T01:08:38.308Z,84.8
2023-03-18T01:09:38.812Z,85.08
2023-03-18T01:10:39.753Z,84.61
2023-03-18T01:11:40.709Z,84.7
2023-03-18T01:12:40.908Z,85.24
2023-03-18T01:13:41.209Z,85.28
2023-03-18T01:14:41.698Z,85.9
2023-03-18T01:15:42.919Z,85.9
2023-03-18T01:16:43.315Z,85.9
2023-03-18T01:17:43.832Z,86.47
2023-03-18T01:18:44.326Z,86.94
2023-03-18T01:19:44.586Z,86.28
2023-03-18T01:20:44.806Z,86.18
2023-03-18T01:21:46.092Z,86.38
2023-03-18T01:22:46.347Z,85.9
2023-03-18T01:23:46.588Z,85.8
2023-03-18T01:24:47.941Z,85.99
2023-03-18T01:25:48.182Z,86.09
2023-03-18T01:26:48.815Z,85.8
2023-03-18T01:27:49.305Z,85.8
2023-03-18T01:28:49.811Z,85.99
2023-03-18T01:29:50.716Z,85.99
2023-03-18T01:30:51.428Z,85.99
2023-03-18T01:31:52.778Z,86.09
2023-03-18T01:32:53.180Z,85.9
2023-03-18T01:33:53.731Z,85.9
2023-03-18T01:34:54.105Z,85.52
2023-03-18T01:35:54.481Z,85.8
2023-03-18T01:36:55.880Z,85.24
2023-03-18T01:37:56.181Z,85.24
2023-03-18T01:38:56.456Z,85.52
2023-03-18T01:39:57.385Z,85.24
2023-03-18T01:40:57.596Z,85.42
2023-03-18T01:41:58.218Z,86.18
2023-03-18T01:42:58.857Z,85.8
2023-03-18T01:43:59.495Z,86.09
2023-03-18T01:45:00.502Z,85.33
2023-03-18T01:46:00.862Z,84.76
2023-03-18T01:47:01.721Z,85.04
2023-03-18T01:48:02.221Z,84.76
2023-03-18T01:49:02.147Z,85.04
2023-03-18T01:50:03.200Z,84.38
2023-03-18T01:51:03.284Z,84.47
2023-03-18T01:52:03.823Z,84.47
2023-03-18T01:53:04.041Z,84.42
2023-03-18T01:54:04.292Z,84.33
2023-03-18T01:55:05.329Z,84.33
2023-03-18T01:56:05.722Z,84.52
2023-03-18T01:57:05.935Z,84.7
2023-03-18T01:58:06.153Z,84.52
2023-03-18T01:59:07.312Z,84.52
2023-03-18T02:00:07.267Z,84.42
2023-03-18T02:01:08.234Z,84.7
2023-03-18T02:02:09.013Z,84.61
2023-03-18T02:03:08.979Z,83.65
2023-03-18T02:04:09.477Z,83.85
2023-03-18T02:05:10.473Z,83.94
2023-03-18T02:06:11.440Z,84.23
2023-03-18T02:07:12.403Z,83.94
2023-03-18T02:08:12.633Z,83.85
2023-03-18T02:09:13.200Z,83.37
2023-03-18T02:10:13.467Z,83.37
2023-03-18T02:11:13.965Z,83.56
2023-03-18T02:12:14.162Z,83.75
2023-03-18T02:13:15.089Z,83.56
2023-03-18T02:14:16.298Z,83.47
2023-03-18T02:15:16.643Z,83.56
2023-03-18T02:16:16.596Z,83.28
2023-03-18T02:17:17.232Z,82.61
2023-03-18T02:18:17.475Z,82.7
2023-03-18T02:19:18.476Z,82.8
2023-03-18T02:20:18.687Z,83.28
2023-03-18T02:21:19.455Z,83.28
2023-03-18T02:22:20.633Z,82.9
2023-03-18T02:23:21.288Z,83.28
2023-03-18T02:24:21.580Z,82.99
2023-03-18T02:25:22.589Z,82.7
2023-03-18T02:26:23.242Z,82.42
2023-03-18T02:27:24.183Z,82.42
2023-03-18T02:28:24.808Z,82.51
2023-03-18T02:29:25.018Z,82.51
2023-03-18T02:30:25.930Z,82.32
2023-03-18T02:31:26.758Z,82.32
2023-03-18T02:32:27.530Z,82.04
2023-03-18T02:33:27.755Z,81.95
2023-03-18T02:34:27.734Z,82.04
2023-03-18T02:35:29.141Z,82.14
2023-03-18T02:36:29.980Z,82.23
2023-03-18T02:37:30.694Z,82.61
2023-03-18T02:38:30.932Z,82.04
2023-03-18T02:39:31.479Z,81.76
2023-03-18T02:40:32.176Z,81.66
2023-03-18T02:41:33.058Z,80.9
2023-03-18T02:42:33.572Z,80.99
2023-03-18T02:43:33.799Z,81.47
2023-03-18T02:44:34.025Z,81.47
2023-03-18T02:45:35.024Z,81.37
2023-03-18T02:46:35.319Z,81.18
2023-03-18T02:47:35.974Z,81.18
2023-03-18T02:48:36.174Z,81.09
2023-03-18T02:49:36.405Z,81.28
2023-03-18T02:50:37.576Z,81.09
2023-03-18T02:51:38.226Z,81.66
2023-03-18T02:52:38.488Z,81.09
2023-03-18T02:53:38.737Z,81.09
2023-03-18T02:54:40.006Z,81.28
2023-03-18T02:55:40.036Z,81.47
2023-03-18T02:56:40.952Z,81.09
2023-03-18T02:57:41.431Z,80.9
2023-03-18T02:58:42.398Z,80.61
2023-03-18T02:59:42.559Z,80.99
2023-03-18T03:00:43.768Z,81.66
2023-03-18T03:01:44.509Z,81.66
2023-03-18T03:02:45.960Z,80.99
2023-03-18T03:03:46.108Z,81.56
2023-03-18T03:04:46.812Z,81.56
2023-03-18T03:05:47.972Z,81.76
2023-03-18T03:06:48.611Z,81.85
2023-03-18T03:07:49.587Z,81.66
2023-03-18T03:08:50.275Z,81.37
2023-03-18T03:09:50.969Z,81.76
2023-03-18T03:10:51.892Z,81.56
2023-03-18T03:11:52.526Z,81.66
2023-03-18T03:12:53.732Z,81.56
2023-03-18T03:13:54.393Z,81.37
2023-03-18T03:14:54.881Z,81.37
2023-03-18T03:15:55.641Z,81.47
2023-03-18T03:16:56.251Z,81.66
2023-03-18T03:17:56.674Z,81.37
2023-03-18T03:18:57.605Z,81.47
2023-03-18T03:19:58.530Z,81.85
2023-03-18T03:20:58.732Z,82.04
2023-03-18T03:21:59.649Z,80.9
2023-03-18T03:23:00.640Z,80.9
2023-03-18T03:24:01.585Z,80.9
2023-03-18T03:25:01.843Z,81.37
2023-03-18T03:26:02.863Z,81.37
2023-03-18T03:27:03.511Z,81.37
2023-03-18T03:28:04.014Z,81.09
2023-03-18T03:29:04.229Z,81.56
2023-03-18T03:30:04.459Z,80.9
2023-03-18T03:31:05.001Z,81.09
2023-03-18T03:32:05.435Z,81.47
2023-03-18T03:33:06.438Z,81.09
2023-03-18T03:34:06.883Z,81.28
2023-03-18T03:35:08.133Z,81.47
2023-03-18T03:36:08.933Z,81.56
2023-03-18T03:37:09.197Z,81.47
2023-03-18T03:38:09.772Z,81.28
2023-03-18T03:39:10.274Z,81.18
2023-03-18T03:40:10.282Z,81.37
2023-03-18T03:41:10.800Z,81.37
2023-03-18T03:42:11.059Z,81.18
2023-03-18T03:43:11.980Z,81.37
2023-03-18T03:44:12.462Z,81.09
2023-03-18T03:45:13.097Z,81.47
2023-03-18T03:46:14.486Z,81.37
2023-03-18T03:47:14.886Z,81.56
2023-03-18T03:48:14.839Z,81.56
2023-03-18T03:49:15.230Z,82.14
2023-03-18T03:50:15.639Z,82.14
2023-03-18T03:51:16.635Z,81.66
2023-03-18T03:52:17.587Z,81.52
2023-03-18T03:53:18.542Z,81.52
2023-03-18T03:54:19.043Z,81.52
2023-03-18T03:55:19.681Z,82.57
2023-03-18T03:56:20.024Z,82.57
2023-03-18T03:57:20.244Z,81.81
2023-03-18T03:58:20.447Z,81.52
2023-03-18T03:59:21.132Z,81.52
2023-03-18T04:00:21.847Z,81.71
2023-03-18T04:01:22.405Z,81.66
2023-03-18T04:02:23.187Z,81.95
2023-03-18T04:03:24.506Z,82.14
2023-03-18T04:04:25.521Z,82.57
2023-03-18T04:05:26.051Z,81.9
2023-03-18T04:06:25.784Z,82.67
2023-03-18T04:07:26.733Z,82.8
2023-03-18T04:08:27.702Z,82.19
2023-03-18T04:09:28.304Z,81.62
2023-03-18T04:10:28.601Z,81.66
2023-03-18T04:11:29.520Z,81.85
2023-03-18T04:12:29.720Z,81.09
2023-03-18T04:13:30.350Z,81.09
2023-03-18T04:14:30.844Z,81.18
2023-03-18T04:15:31.063Z,81.62
2023-03-18T04:16:31.480Z,81.47
2023-03-18T04:17:32.439Z,81.47
2023-03-18T04:18:32.928Z,81.95
2023-03-18T04:19:33.135Z,82.14
2023-03-18T04:20:33.788Z,82.19
2023-03-18T04:21:34.639Z,81.52
2023-03-18T04:22:34.871Z,81.56
2023-03-18T04:23:35.578Z,81.52
2023-03-18T04:24:36.448Z,81.71
2023-03-18T04:25:36.749Z,82.09
2023-03-18T04:26:38.092Z,82
2023-03-18T04:27:38.582Z,81.24
2023-03-18T04:28:39.531Z,81.62
2023-03-18T04:29:40.044Z,82.09
2023-03-18T04:30:40.528Z,82
2023-03-18T04:31:40.930Z,81.9
2023-03-18T04:32:41.883Z,82.09
2023-03-18T04:33:41.833Z,81.9
2023-03-18T04:34:43.099Z,82
2023-03-18T04:35:43.542Z,82.48
2023-03-18T04:36:44.324Z,82.28
2023-03-18T04:37:44.956Z,82.67
2023-03-18T04:38:45.689Z,83.04
2023-03-18T04:39:46.300Z,82.67
2023-03-18T04:40:46.561Z,82.95
2023-03-18T04:41:47.328Z,82.57
2023-03-18T04:42:47.947Z,82.67
2023-03-18T04:43:48.454Z,82.95
2023-03-18T04:44:48.383Z,83.14
2023-03-18T04:45:49.577Z,83.14
2023-03-18T04:46:49.826Z,83.04
2023-03-18T04:47:50.498Z,83.71
2023-03-18T04:48:50.735Z,83.33
2023-03-18T04:49:51.952Z,83.62
2023-03-18T04:50:51.911Z,83.42
2023-03-18T04:51:52.836Z,83.33
2023-03-18T04:52:53.799Z,83.23
2023-03-18T04:53:54.038Z,83.33
2023-03-18T04:54:54.771Z,84.19
2023-03-18T04:55:54.459Z,83.71
2023-03-18T04:56:55.065Z,84.38
2023-03-18T04:57:55.788Z,83.81
2023-03-18T04:58:56.403Z,83.71
2023-03-18T04:59:57.338Z,84.28
2023-03-18T05:00:57.602Z,83.81
2023-03-18T05:01:58.001Z,84.38
2023-03-18T05:02:58.944Z,83.81
2023-03-18T05:03:59.460Z,84.56
2023-03-18T05:05:00.107Z,84.47
2023-03-18T05:06:00.604Z,84.38
2023-03-18T05:07:00.746Z,84.56
2023-03-18T05:08:01.936Z,84.95
2023-03-18T05:09:02.259Z,85.52
2023-03-18T05:10:02.788Z,85.71
2023-03-18T05:11:03.304Z,85.52
2023-03-18T05:12:03.792Z,85.71
2023-03-18T05:13:04.825Z,85.9
2023-03-18T05:14:05.478Z,86.09
2023-03-18T05:15:06.713Z,85.71
2023-03-18T05:16:07.370Z,85.9
2023-03-18T05:17:07.771Z,85.52
2023-03-18T05:18:08.705Z,85.61
2023-03-18T05:19:08.916Z,85.9
2023-03-18T05:20:09.665Z,85.8
2023-03-18T05:21:09.803Z,85.33
2023-03-18T05:22:10.342Z,85.24
2023-03-18T05:23:10.563Z,86.09
2023-03-18T05:24:10.936Z,86.38
2023-03-18T05:25:11.878Z,85.99
2023-03-18T05:26:12.428Z,86.09
2023-03-18T05:27:13.364Z,86.47
2023-03-18T05:28:16.643Z,86.09
2023-03-18T05:29:14.299Z,86.28
2023-03-18T05:30:14.788Z,85.76
2023-03-18T05:31:15.286Z,86.05
2023-03-18T05:32:15.365Z,86.33
2023-03-18T05:33:16.452Z,87.09
2023-03-18T05:34:16.984Z,86.9
2023-03-18T05:35:17.930Z,86.9
2023-03-18T05:36:18.202Z,86.99
2023-03-18T05:37:18.545Z,87.28
2023-03-18T05:38:19.028Z,86.71
2023-03-18T05:39:19.286Z,86.71
2023-03-18T05:40:19.227Z,86.71
2023-03-18T05:41:20.520Z,86.71
2023-03-18T05:42:21.478Z,86.9
2023-03-18T05:43:22.455Z,86.99
2023-03-18T05:44:22.978Z,87.09
2023-03-18T05:45:23.462Z,87.09
2023-03-18T05:46:23.632Z,87.57
2023-03-18T05:47:24.107Z,87.95
2023-03-18T05:48:24.359Z,87.28
2023-03-18T05:49:25.585Z,87.95
2023-03-18T05:50:26.525Z,87.76
2023-03-18T05:51:27.188Z,87.95
2023-03-18T05:52:27.417Z,88.23
2023-03-18T05:53:28.338Z,87.57
2023-03-18T05:54:28.593Z,87.85
2023-03-18T05:55:28.559Z,87.47
2023-03-18T05:56:28.787Z,87.85
2023-03-18T05:57:29.659Z,87.95
2023-03-18T05:58:30.579Z,88.23
2023-03-18T05:59:30.824Z,88.61
2023-03-18T06:00:31.761Z,88.8
2023-03-18T06:01:32.265Z,89.37
2023-03-18T06:02:32.300Z,89.66
2023-03-18T06:03:33.486Z,88.71
2023-03-18T06:04:33.683Z,88.61
2023-03-18T06:05:34.777Z,89.18
2023-03-18T06:06:35.373Z,88.71
2023-03-18T06:07:36.472Z,89.18
2023-03-18T06:08:36.406Z,88.61
2023-03-18T06:09:37.377Z,88.8
2023-03-18T06:10:37.738Z,88.33
2023-03-18T06:11:38.270Z,88.52
2023-03-18T06:12:38.931Z,88.33
2023-03-18T06:13:40.267Z,89.18
2023-03-18T06:14:40.464Z,88.52
2023-03-18T06:15:41.394Z,88.52
2023-03-18T06:16:42.297Z,88.8
2023-03-18T06:17:42.743Z,88.42
2023-03-18T06:18:43.396Z,88.13
2023-03-18T06:19:44.355Z,88.04
2023-03-18T06:20:44.729Z,87.66
2023-03-18T06:21:45.649Z,87.19
2023-03-18T06:22:46.849Z,87.09
2023-03-18T06:23:46.895Z,87.38
2023-03-18T06:24:48.566Z,86.99
2023-03-18T06:25:49.101Z,87.66
2023-03-18T06:26:49.064Z,87.85
2023-03-18T06:27:50.086Z,87.09
2023-03-18T06:28:51.033Z,87.19
2023-03-18T06:29:51.941Z,86.85
2023-03-18T06:30:53.127Z,87.13
2023-03-18T06:31:53.412Z,86.43
2023-03-18T06:32:54.178Z,86.94
2023-03-18T06:33:54.329Z,86.66
2023-03-18T06:34:55.140Z,87.32
2023-03-18T06:35:56.216Z,87.04
2023-03-18T06:36:56.874Z,86.47
2023-03-18T06:37:57.193Z,86.09
2023-03-18T06:38:57.126Z,86.28
2023-03-18T06:39:58.432Z,85.61
2023-03-18T06:40:58.974Z,85.71
2023-03-18T06:41:59.527Z,85.61
2023-03-18T06:43:00.481Z,86.09
2023-03-18T06:44:00.706Z,85.14
2023-03-18T06:45:01.840Z,84.76
2023-03-18T06:46:01.856Z,84.76
2023-03-18T06:47:02.109Z,84.19
2023-03-18T06:48:03.414Z,85.08
2023-03-18T06:49:04.036Z,84.52
2023-03-18T06:50:05.245Z,84.7
2023-03-18T06:51:05.826Z,84.23
2023-03-18T06:52:06.490Z,83.56
2023-03-18T06:53:07.108Z,83.65
2023-03-18T06:54:08.017Z,84.23
2023-03-18T06:55:08.276Z,83.75
2023-03-18T06:56:08.498Z,83.75
2023-03-18T06:57:09.029Z,84.13
2023-03-18T06:58:09.051Z,83.28
2023-03-18T06:59:09.433Z,83.47
2023-03-18T07:00:10.424Z,83.18
2023-03-18T07:01:10.996Z,82.8
2023-03-18T07:02:11.096Z,82.8
2023-03-18T07:03:12.020Z,83.18
2023-03-18T07:04:12.483Z,82.61
2023-03-18T07:05:12.963Z,81.89
2023-03-18T07:06:13.491Z,80.94
2023-03-18T07:07:14.412Z,80.75
2023-03-18T07:08:15.436Z,80.12
2023-03-18T07:09:15.412Z,79.46
2023-03-18T07:10:16.119Z,78.78
2023-03-18T07:11:16.381Z,77.74
2023-03-18T07:12:17.371Z,78.12
2023-03-18T07:13:17.608Z,78.12
2023-03-18T07:14:18.294Z,78.31
2023-03-18T07:15:19.546Z,78.69
2023-03-18T07:16:19.861Z,78.41
2023-03-18T07:17:20.060Z,78.98
2023-03-18T07:18:20.852Z,78.59
2023-03-18T07:19:21.232Z,78.78
2023-03-18T07:20:21.207Z,78.59
2023-03-18T07:21:22.124Z,78.41
2023-03-18T07:22:23.038Z,78.69
2023-03-18T07:23:23.598Z,79.17
2023-03-18T07:24:24.535Z,78.59
2023-03-18T07:25:28.013Z,78.88
2023-03-18T07:26:25.697Z,78.88
2023-03-18T07:27:25.992Z,78.98
2023-03-18T07:28:26.728Z,78.78
2023-03-18T07:29:27.678Z,78.98
2023-03-18T07:30:27.629Z,78.88
2023-03-18T07:31:28.761Z,78.31
2023-03-18T07:32:29.629Z,78.31
2023-03-18T07:33:30.055Z,78.03
2023-03-18T07:34:30.722Z,77.93
2023-03-18T07:35:31.956Z,78.22
2023-03-18T07:36:31.866Z,78.03
2023-03-18T07:37:32.626Z,78.31
2023-03-18T07:38:32.972Z,77.74
2023-03-18T07:39:34.190Z,77.45
2023-03-18T07:40:34.925Z,77.83
2023-03-18T07:41:37.681Z,77.83
2023-03-18T07:42:36.039Z,77.78
2023-03-18T07:43:36.967Z,77.4
2023-03-18T07:44:37.187Z,77.87
2023-03-18T07:45:38.675Z,77.69
2023-03-18T07:46:39.179Z,78.06
2023-03-18T07:47:39.610Z,77.87
2023-03-18T07:48:39.939Z,78.25
2023-03-18T07:49:40.906Z,78.35
2023-03-18T07:50:41.112Z,78.06
2023-03-18T07:51:42.322Z,78.16
2023-03-18T07:52:42.911Z,77.87
2023-03-18T07:53:43.561Z,77.97
2023-03-18T07:54:44.053Z,76.92
2023-03-18T07:55:44.604Z,77.3
2023-03-18T07:56:45.154Z,76.92
2023-03-18T07:57:45.901Z,76.39
2023-03-18T07:58:46.276Z,75.91
2023-03-18T07:59:46.779Z,75.72
2023-03-18T08:00:47.013Z,75.34
2023-03-18T08:01:47.259Z,75.43
2023-03-18T08:02:48.216Z,76.29
2023-03-18T08:03:48.612Z,76.1
2023-03-18T08:04:48.510Z,76.86
2023-03-18T08:05:48.764Z,75.62
2023-03-18T08:06:49.268Z,74.77
2023-03-18T08:07:49.481Z,73.94
2023-03-18T08:08:49.809Z,74.61
2023-03-18T08:09:50.183Z,74.71
2023-03-18T08:10:51.437Z,74.13
2023-03-18T08:11:51.748Z,73.56
2023-03-18T08:12:58.327Z,73.41
2023-03-18T08:13:52.593Z,73.03
2023-03-18T08:14:52.821Z,72.64
2023-03-18T08:15:53.480Z,72.26
2023-03-18T08:16:53.880Z,72.26
2023-03-18T08:17:54.526Z,72.2
2023-03-18T08:18:55.068Z,72.39
2023-03-18T08:19:56.273Z,71.72
2023-03-18T08:20:56.552Z,72.49
2023-03-18T08:21:57.063Z,71.63
2023-03-18T08:22:57.729Z,71.44
2023-03-18T08:23:58.673Z,71.44
2023-03-18T08:24:59.902Z,71.06
2023-03-18T08:26:00.229Z,71.19
2023-03-18T08:26:59.965Z,70.81
2023-03-18T08:28:00.529Z,70.81
2023-03-18T08:29:00.869Z,71.28
2023-03-18T08:30:03.460Z,71.7
2023-03-18T08:31:01.772Z,71.67
2023-03-18T08:32:02.874Z,70.65
2023-03-18T08:33:03.598Z,70.84
2023-03-18T08:34:04.064Z,70.36
2023-03-18T08:35:04.267Z,70.46
2023-03-18T08:36:04.679Z,70.21
2023-03-18T08:37:04.545Z,69.25
2023-03-18T08:38:05.771Z,68.68
2023-03-18T08:39:06.549Z,68.58
2023-03-18T08:40:07.479Z,68.29
2023-03-18T08:41:08.231Z,68.87
2023-03-18T08:42:08.760Z,69.06
2023-03-18T08:43:09.351Z,68.01
2023-03-18T08:44:09.862Z,67.94
2023-03-18T08:45:10.088Z,67.56
2023-03-18T08:46:10.210Z,67.56
2023-03-18T08:47:11.088Z,68.04
2023-03-18T08:48:11.590Z,68.52
2023-03-18T08:49:12.418Z,68.52
2023-03-18T08:50:13.062Z,67.82
2023-03-18T08:51:13.578Z,68.33
2023-03-18T08:52:14.079Z,68.04
2023-03-18T08:53:14.744Z,67.18
2023-03-18T08:54:15.689Z,66.7
2023-03-18T08:55:16.430Z,67.47
2023-03-18T08:56:16.808Z,69.57
2023-03-18T08:57:17.330Z,69.76
2023-03-18T08:58:18.006Z,68.62
2023-03-18T08:59:18.314Z,69.19
2023-03-18T09:00:19.248Z,69
2023-03-18T09:01:19.796Z,68.62
2023-03-18T09:02:20.237Z,68.42
2023-03-18T09:03:20.566Z,67.69
2023-03-18T09:04:21.799Z,65.78
2023-03-18T09:05:22.773Z,64.72
2023-03-18T09:06:23.267Z,64.53
2023-03-18T09:07:24.732Z,65.23
2023-03-18T09:08:25.053Z,66.09
2023-03-18T09:09:41.018Z,65.91
2023-03-18T09:10:26.668Z,64.95
2023-03-18T09:11:27.242Z,65.23
2023-03-18T09:12:27.473Z,65.84
2023-03-18T09:13:28.740Z,65.55
2023-03-18T09:14:29.310Z,65.17
2023-03-18T09:15:29.263Z,65.46
2023-03-18T09:16:29.769Z,65.46
2023-03-18T09:18:04.106Z,65.08
2023-03-18T09:18:31.269Z,65.81
2023-03-18T09:19:31.722Z,65.23
2023-03-18T09:20:33.029Z,64.28
2023-03-18T09:21:33.651Z,64.66
2023-03-18T09:22:34.290Z,64.95
2023-03-18T09:23:35.532Z,66.19
2023-03-18T09:24:35.770Z,65.91
2023-03-18T09:25:36.568Z,65.71
2023-03-18T09:26:36.814Z,66.22
2023-03-18T09:27:37.098Z,63.64
2023-03-18T09:28:37.346Z,63.45
2023-03-18T09:29:38.086Z,61.18
2023-03-18T09:30:38.404Z,59.64
2023-03-18T09:31:39.371Z,60.05
2023-03-18T09:32:40.075Z,59.86
2023-03-18T09:33:40.464Z,57.97
2023-03-18T09:34:40.682Z,57.59
2023-03-18T09:35:41.389Z,57.04
2023-03-18T09:36:41.433Z,56.95
2023-03-18T09:37:41.750Z,56.98
2023-03-18T09:38:42.253Z,55.53
2023-03-18T09:39:42.960Z,56.88
2023-03-18T09:40:44.015Z,55.34
2023-03-18T09:41:44.297Z,53.8
2023-03-18T09:42:44.840Z,54.09
2023-03-18T09:43:45.096Z,54.77
2023-03-18T09:44:45.598Z,55.02
2023-03-18T09:45:46.172Z,54.93
2023-03-18T09:46:47.123Z,55.15
2023-03-18T09:47:47.707Z,55.27
2023-03-18T09:48:48.250Z,55.08
2023-03-18T09:49:48.296Z,55.08
2023-03-18T09:50:48.519Z,55.37
2023-03-18T09:51:49.474Z,54.99
2023-03-18T09:52:49.722Z,52.42
2023-03-18T09:53:50.250Z,51.04
2023-03-18T09:54:50.942Z,49.91
2023-03-18T09:55:51.885Z,50.59
2023-03-18T09:56:53.211Z,51.29
2023-03-18T09:57:53.448Z,50.61
2023-03-18T09:58:53.745Z,51.09
2023-03-18T09:59:54.384Z,51.38
2023-03-18T10:00:55.375Z,49.77
2023-03-18T10:01:55.835Z,48.33
2023-03-18T10:02:56.233Z,48.43
2023-03-18T10:03:57.101Z,49.29
2023-03-18T10:04:57.527Z,49.32
2023-03-18T10:05:58.335Z,49.99
2023-03-18T10:06:58.271Z,49.41
2023-03-18T10:07:59.229Z,47.87
2023-03-18T10:08:59.889Z,48.66
2023-03-18T10:10:01.225Z,48.47
2023-03-18T10:11:01.320Z,48.28
2023-03-18T10:12:02.292Z,47.7
2023-03-18T10:13:02.826Z,47.41
2023-03-18T10:14:03.076Z,46.83
2023-03-18T10:15:03.731Z,45.79
2023-03-18T10:16:04.982Z,46.18
2023-03-18T10:17:05.504Z,45.89
2023-03-18T10:18:05.471Z,46.47
2023-03-18T10:19:07.108Z,45.82
2023-03-18T10:20:06.932Z,45.24
2023-03-18T10:21:07.526Z,45.43
2023-03-18T10:22:07.742Z,45.24
2023-03-18T10:23:09.005Z,45.82
2023-03-18T10:24:09.948Z,45.07
2023-03-18T10:25:10.488Z,44.78
2023-03-18T10:26:10.731Z,44.59
2023-03-18T10:27:11.753Z,44.59
2023-03-18T10:28:12.077Z,44.9
2023-03-18T10:29:12.338Z,45.96
2023-03-18T10:30:12.652Z,47.14
2023-03-18T10:31:13.048Z,46.08
2023-03-18T10:32:13.872Z,44.07
2023-03-18T10:33:14.871Z,44.29
2023-03-18T10:34:15.578Z,44.12
2023-03-18T10:35:15.524Z,44.02
2023-03-18T10:36:15.851Z,43.92
2023-03-18T10:37:16.596Z,44.31
2023-03-18T10:38:17.834Z,45.08
2023-03-18T10:39:18.069Z,44.12
2023-03-18T10:40:17.915Z,43.54
2023-03-18T10:41:18.944Z,42.37
2023-03-18T10:42:19.698Z,42.47
2023-03-18T10:43:20.276Z,41.02
2023-03-18T10:44:20.238Z,41.99
2023-03-18T10:45:21.210Z,41.89
2023-03-18T10:46:22.171Z,41.99
2023-03-18T10:47:22.639Z,42.76
2023-03-18T10:48:23.132Z,42.07
2023-03-18T10:49:24.080Z,42.74
2023-03-18T10:50:24.905Z,43.41
2023-03-18T10:51:25.077Z,41.97
2023-03-18T10:52:25.309Z,40.83
2023-03-18T10:53:25.540Z,42.08
2023-03-18T10:54:26.199Z,42.88
2023-03-18T10:55:26.727Z,42.68
2023-03-18T10:56:26.953Z,42.4
2023-03-18T10:57:27.936Z,40.75
2023-03-18T10:58:28.213Z,40.96
2023-03-18T10:59:28.560Z,41.16
2023-03-18T11:00:29.370Z,40.38
2023-03-18T11:01:30.302Z,40.38
2023-03-18T11:02:30.775Z,39.22
2023-03-18T11:03:31.141Z,39.2
2023-03-18T11:04:31.402Z,39.95
2023-03-18T11:05:32.544Z,39.86
2023-03-18T11:06:32.575Z,40.23
2023-03-18T11:07:33.260Z,41.17
2023-03-18T11:08:33.769Z,43.03
2023-03-18T11:09:34.404Z,42.91
2023-03-18T11:10:35.402Z,42.72
2023-03-18T11:11:35.940Z,42.74
2023-03-18T11:12:36.886Z,41.85
2023-03-18T11:13:36.854Z,43.03
2023-03-18T11:14:37.531Z,42.82
2023-03-18T11:15:38.518Z,43.4
2023-03-18T11:16:39.011Z,44.26
2023-03-18T11:17:40.269Z,44.07
2023-03-18T11:18:40.501Z,44.94
2023-03-18T11:19:41.017Z,45.14
2023-03-18T11:20:41.811Z,47.65
2023-03-18T11:21:42.332Z,47.33
2023-03-18T11:22:42.580Z,47.43
2023-03-18T11:23:43.531Z,47.53
2023-03-18T11:24:43.857Z,45.01
2023-03-18T11:25:45.104Z,44.22
2023-03-18T11:26:45.402Z,44.6
2023-03-18T11:27:45.909Z,43.93
2023-03-18T11:28:45.659Z,44.6
2023-03-18T11:29:47.052Z,45.28
2023-03-18T11:30:47.665Z,45.18
2023-03-18T11:31:48.082Z,46.64
2023-03-18T11:32:48.819Z,44.8
2023-03-18T11:33:49.470Z,45.5
2023-03-18T11:34:49.823Z,45.76
2023-03-18T11:35:50.513Z,46.64
2023-03-18T11:36:50.634Z,46.06
2023-03-18T11:37:51.143Z,45.48
2023-03-18T11:38:52.141Z,45.55
2023-03-18T11:39:56.791Z,47
2023-03-18T11:40:53.123Z,47.96
2023-03-18T11:41:53.777Z,47.77
2023-03-18T11:42:55.140Z,48.74
2023-03-18T11:43:55.810Z,47.5
2023-03-18T11:44:57.186Z,47.7
2023-03-18T11:45:57.427Z,45.48
2023-03-18T11:46:57.778Z,47.41
2023-03-18T11:47:57.942Z,47.89
2023-03-18T11:48:58.912Z,48.57
2023-03-18T11:49:59.871Z,46.06
2023-03-18T11:53:02.341Z,46.64
2023-03-18T15:44:36.374Z,53.38
2023-03-18T15:45:37.190Z,53.92
2023-03-18T15:46:37.388Z,54.22
2023-03-18T15:47:37.634Z,54.12
2023-03-18T15:48:37.583Z,54.41
2023-03-18T15:49:37.788Z,53.74
2023-03-18T15:50:38.710Z,54.12
2023-03-18T15:51:38.657Z,54.99
2023-03-18T15:52:39.380Z,54.89
2023-03-18T15:53:39.929Z,55.15
2023-03-18T15:54:40.592Z,55.05
2023-03-18T15:55:41.309Z,55.44
2023-03-18T15:56:41.974Z,55.53
2023-03-18T15:57:42.025Z,55.63
2023-03-18T15:58:42.262Z,56.3
2023-03-18T15:59:43.542Z,56.4
2023-03-18T16:00:43.846Z,56.76
2023-03-18T16:01:44.963Z,56.68
2023-03-18T16:02:45.993Z,57.14
2023-03-18T16:03:45.950Z,56.76
2023-03-18T16:04:46.609Z,57.17
2023-03-18T16:05:46.924Z,57.04
2023-03-18T16:06:47.144Z,56.95
2023-03-18T16:07:47.654Z,57.04
2023-03-18T16:08:48.353Z,57.14
2023-03-18T16:09:49.318Z,58.1
2023-03-18T16:10:50.401Z,57.43
2023-03-18T16:11:51.270Z,57.43
2023-03-18T16:12:51.777Z,57.5
2023-03-18T16:13:51.688Z,57.88
2023-03-18T16:14:52.298Z,57.9
2023-03-18T16:15:52.899Z,57.78
2023-03-18T16:16:53.489Z,58.94
2023-03-18T16:17:54.613Z,59.12
2023-03-18T16:18:55.113Z,58.64
2023-03-18T16:19:55.336Z,58.55
2023-03-18T16:20:55.744Z,58.55
2023-03-18T16:21:56.727Z,59.03
2023-03-18T16:22:56.974Z,59.12
2023-03-18T16:23:57.511Z,59.61
2023-03-18T16:24:57.755Z,60.18
2023-03-18T16:25:58.064Z,61.08
2023-03-18T16:26:59.029Z,60.08
2023-03-18T16:27:59.983Z,61.84
2023-03-18T16:29:00.649Z,60.02
2023-03-18T16:30:01.275Z,59.54
2023-03-18T16:31:01.187Z,59.44
2023-03-18T16:32:02.325Z,59.54
2023-03-18T16:33:03.284Z,58.77
2023-03-18T16:34:03.409Z,58.96
2023-03-18T16:35:03.653Z,60.21
2023-03-18T16:36:04.696Z,60.88
2023-03-18T16:37:05.997Z,61.46
2023-03-18T16:38:06.578Z,61.17
2023-03-18T16:39:07.517Z,61.27
2023-03-18T16:40:08.168Z,60.98
2023-03-18T16:41:09.402Z,60.31
2023-03-18T16:42:09.349Z,60.11
2023-03-18T16:43:10.005Z,61.08
2023-03-18T16:44:10.797Z,59.92
2023-03-18T16:45:11.825Z,60.4
2023-03-18T16:46:12.463Z,60.88
2023-03-18T16:47:12.823Z,61.27
2023-03-18T16:48:13.755Z,60.31
2023-03-18T16:49:13.695Z,61.46
2023-03-18T16:50:14.053Z,61.08
2023-03-18T16:51:14.722Z,61.81
2023-03-18T16:52:14.931Z,62.42
2023-03-18T16:53:15.154Z,62.01
2023-03-18T16:54:16.204Z,61.91
2023-03-18T16:55:16.902Z,62.68